sensor_id;sensor_type;location;lat;lon;timestamp;P1;durP1;ratioP1;P2;durP2;ratioP2
39680;SDS011;26327;42.550;23.120;2022-07-01T05:47:01;13.85;;;8.15;;
39680;SDS011;26327;42.550;23.120;2022-07-01T05:49:26;11.65;;;7.47;;
39680;SDS011;26327;42.550;23.120;2022-07-01T05:51:51;13.98;;;7.82;;
39680;SDS011;26327;42.550;23.120;2022-07-01T05:54:17;11.82;;;7.68;;
39680;SDS011;26327;42.550;23.120;2022-07-01T05:56:42;13.20;;;7.28;;
39680;SDS011;26327;42.550;23.120;2022-07-01T05:59:08;12.05;;;8.05;;
39680;SDS011;26327;42.550;23.120;2022-07-01T06:01:33;12.73;;;7.75;;
39680;SDS011;26327;42.550;23.120;2022-07-01T06:03:59;16.67;;;7.53;;
39680;SDS011;26327;42.550;23.120;2022-07-01T06:06:24;14.30;;;8.05;;
39680;SDS011;26327;42.550;23.120;2022-07-01T06:08:49;14.98;;;7.95;;
39680;SDS011;26327;42.550;23.120;2022-07-01T06:11:15;12.35;;;7.43;;
39680;SDS011;26327;42.550;23.120;2022-07-01T06:13:40;12.65;;;7.25;;
39680;SDS011;26327;42.550;23.120;2022-07-01T06:16:06;10.75;;;7.03;;
39680;SDS011;26327;42.550;23.120;2022-07-01T06:18:31;14.98;;;8.65;;
39680;SDS011;26327;42.550;23.120;2022-07-01T06:20:57;11.63;;;8.05;;
39680;SDS011;26327;42.550;23.120;2022-07-01T06:23:22;34.50;;;17.20;;
39680;SDS011;26327;42.550;23.120;2022-07-01T06:25:48;17.67;;;8.65;;
39680;SDS011;26327;42.550;23.120;2022-07-01T06:28:13;15.10;;;7.35;;
39680;SDS011;26327;42.550;23.120;2022-07-01T06:30:39;14.68;;;7.40;;
39680;SDS011;26327;42.550;23.120;2022-07-01T06:33:08;17.73;;;9.32;;
39680;SDS011;26327;42.550;23.120;2022-07-01T06:35:33;11.65;;;6.85;;
39680;SDS011;26327;42.550;23.120;2022-07-01T06:37:59;11.02;;;6.70;;
39680;SDS011;26327;42.550;23.120;2022-07-01T06:40:24;10.32;;;7.10;;
39680;SDS011;26327;42.550;23.120;2022-07-01T06:42:50;12.18;;;7.78;;
39680;SDS011;26327;42.550;23.120;2022-07-01T06:45:15;11.45;;;7.30;;
39680;SDS011;26327;42.550;23.120;2022-07-01T06:47:40;18.45;;;9.18;;
39680;SDS011;26327;42.550;23.120;2022-07-01T06:50:06;12.02;;;7.93;;
39680;SDS011;26327;42.550;23.120;2022-07-01T06:52:32;21.00;;;11.25;;
39680;SDS011;26327;42.550;23.120;2022-07-01T06:54:58;23.33;;;13.10;;
39680;SDS011;26327;42.550;23.120;2022-07-01T06:57:24;30.13;;;15.85;;
39680;SDS011;26327;42.550;23.120;2022-07-01T06:59:49;30.55;;;15.13;;
39680;SDS011;26327;42.550;23.120;2022-07-01T07:02:15;12.77;;;8.02;;
39680;SDS011;26327;42.550;23.120;2022-07-01T07:04:40;35.78;;;20.35;;
39680;SDS011;26327;42.550;23.120;2022-07-01T07:07:06;23.67;;;14.05;;
39680;SDS011;26327;42.550;23.120;2022-07-01T07:09:31;25.35;;;11.00;;
39680;SDS011;26327;42.550;23.120;2022-07-01T07:11:56;21.20;;;11.00;;
39680;SDS011;26327;42.550;23.120;2022-07-01T07:14:22;30.13;;;17.15;;
39680;SDS011;26327;42.550;23.120;2022-07-01T07:16:47;38.15;;;20.50;;
39680;SDS011;26327;42.550;23.120;2022-07-01T07:19:13;36.80;;;20.17;;
39680;SDS011;26327;42.550;23.120;2022-07-01T07:21:38;44.33;;;25.02;;
39680;SDS011;26327;42.550;23.120;2022-07-01T07:24:04;48.30;;;24.00;;
39680;SDS011;26327;42.550;23.120;2022-07-01T07:26:30;46.50;;;23.58;;
39680;SDS011;26327;42.550;23.120;2022-07-01T07:28:56;45.10;;;22.38;;
39680;SDS011;26327;42.550;23.120;2022-07-01T07:31:21;43.50;;;22.48;;
39680;SDS011;26327;42.550;23.120;2022-07-01T07:33:46;45.95;;;20.98;;
39680;SDS011;26327;42.550;23.120;2022-07-01T07:36:12;40.60;;;20.38;;
39680;SDS011;26327;42.550;23.120;2022-07-01T07:38:38;35.55;;;16.67;;
39680;SDS011;26327;42.550;23.120;2022-07-01T07:41:03;31.73;;;15.05;;
39680;SDS011;26327;42.550;23.120;2022-07-01T07:43:29;29.15;;;13.82;;
39680;SDS011;26327;42.550;23.120;2022-07-01T07:45:54;30.45;;;12.00;;
39680;SDS011;26327;42.550;23.120;2022-07-01T07:48:20;25.52;;;12.02;;
39680;SDS011;26327;42.550;23.120;2022-07-01T07:50:45;17.67;;;10.80;;
39680;SDS011;26327;42.550;23.120;2022-07-01T07:53:12;21.13;;;11.00;;
39680;SDS011;26327;42.550;23.120;2022-07-01T07:55:38;22.27;;;11.63;;
39680;SDS011;26327;42.550;23.120;2022-07-01T07:58:04;24.60;;;11.45;;
39680;SDS011;26327;42.550;23.120;2022-07-01T08:00:30;22.40;;;11.77;;
39680;SDS011;26327;42.550;23.120;2022-07-01T08:02:56;21.80;;;11.02;;
39680;SDS011;26327;42.550;23.120;2022-07-01T08:05:21;19.98;;;10.63;;
39680;SDS011;26327;42.550;23.120;2022-07-01T08:07:47;18.35;;;10.45;;
39680;SDS011;26327;42.550;23.120;2022-07-01T08:10:13;16.10;;;9.57;;
39680;SDS011;26327;42.550;23.120;2022-07-01T08:12:39;18.88;;;9.68;;
39680;SDS011;26327;42.550;23.120;2022-07-01T08:15:05;18.58;;;9.27;;
39680;SDS011;26327;42.550;23.120;2022-07-01T08:17:31;12.40;;;7.45;;
39680;SDS011;26327;42.550;23.120;2022-07-01T08:19:57;16.08;;;8.60;;
39680;SDS011;26327;42.550;23.120;2022-07-01T08:22:23;11.27;;;7.18;;
39680;SDS011;26327;42.550;23.120;2022-07-01T08:24:48;9.20;;;5.40;;
39680;SDS011;26327;42.550;23.120;2022-07-01T08:27:14;7.95;;;5.72;;
39680;SDS011;26327;42.550;23.120;2022-07-01T08:29:39;13.95;;;6.85;;
39680;SDS011;26327;42.550;23.120;2022-07-01T08:32:05;12.75;;;7.75;;
39680;SDS011;26327;42.550;23.120;2022-07-01T08:34:32;13.25;;;7.28;;
39680;SDS011;26327;42.550;23.120;2022-07-01T08:36:57;14.50;;;8.55;;
39680;SDS011;26327;42.550;23.120;2022-07-01T08:39:22;13.55;;;8.02;;
39680;SDS011;26327;42.550;23.120;2022-07-01T08:41:48;14.68;;;8.10;;
39680;SDS011;26327;42.550;23.120;2022-07-01T08:44:13;16.98;;;7.90;;
39680;SDS011;26327;42.550;23.120;2022-07-01T08:46:39;15.75;;;7.97;;
39680;SDS011;26327;42.550;23.120;2022-07-01T08:49:05;14.40;;;7.47;;
39680;SDS011;26327;42.550;23.120;2022-07-01T08:51:31;15.68;;;7.97;;
39680;SDS011;26327;42.550;23.120;2022-07-01T08:53:58;15.77;;;7.57;;
39680;SDS011;26327;42.550;23.120;2022-07-01T08:56:24;12.93;;;7.40;;
39680;SDS011;26327;42.550;23.120;2022-07-01T08:59:09;11.15;;;5.78;;
39680;SDS011;26327;42.550;23.120;2022-07-01T09:01:35;11.10;;;6.43;;
39680;SDS011;26327;42.550;23.120;2022-07-01T09:04:17;9.07;;;6.45;;
39680;SDS011;26327;42.550;23.120;2022-07-01T09:06:45;13.32;;;6.85;;
39680;SDS011;26327;42.550;23.120;2022-07-01T09:09:19;11.57;;;5.95;;
39680;SDS011;26327;42.550;23.120;2022-07-01T09:11:46;12.63;;;6.28;;
39680;SDS011;26327;42.550;23.120;2022-07-01T09:14:19;12.18;;;6.22;;
39680;SDS011;26327;42.550;23.120;2022-07-01T09:19:23;10.23;;;6.75;;
39680;SDS011;26327;42.550;23.120;2022-07-01T09:21:50;8.43;;;5.95;;
39680;SDS011;26327;42.550;23.120;2022-07-01T09:27:07;10.85;;;6.00;;
39680;SDS011;26327;42.550;23.120;2022-07-01T09:29:45;10.48;;;6.38;;
39680;SDS011;26327;42.550;23.120;2022-07-01T09:32:14;11.02;;;6.95;;
39680;SDS011;26327;42.550;23.120;2022-07-01T09:34:46;13.68;;;6.75;;
39680;SDS011;26327;42.550;23.120;2022-07-01T09:37:16;14.13;;;6.80;;
39680;SDS011;26327;42.550;23.120;2022-07-01T09:39:44;7.75;;;6.45;;
39680;SDS011;26327;42.550;23.120;2022-07-01T09:42:10;13.70;;;8.77;;
39680;SDS011;26327;42.550;23.120;2022-07-01T09:44:50;11.35;;;9.43;;
39680;SDS011;26327;42.550;23.120;2022-07-01T09:47:25;11.98;;;6.80;;
39680;SDS011;26327;42.550;23.120;2022-07-01T09:49:53;14.70;;;6.93;;
39680;SDS011;26327;42.550;23.120;2022-07-01T09:52:19;14.68;;;6.93;;
39680;SDS011;26327;42.550;23.120;2022-07-01T09:54:45;9.35;;;5.88;;
39680;SDS011;26327;42.550;23.120;2022-07-01T09:57:15;11.52;;;6.05;;
39680;SDS011;26327;42.550;23.120;2022-07-01T09:59:41;7.72;;;5.70;;
39680;SDS011;26327;42.550;23.120;2022-07-01T10:02:10;9.30;;;5.97;;
39680;SDS011;26327;42.550;23.120;2022-07-01T10:04:36;12.20;;;6.35;;
39680;SDS011;26327;42.550;23.120;2022-07-01T10:07:07;10.15;;;6.13;;
39680;SDS011;26327;42.550;23.120;2022-07-01T10:12:42;13.10;;;5.85;;
39680;SDS011;26327;42.550;23.120;2022-07-01T10:15:11;13.45;;;5.35;;
39680;SDS011;26327;42.550;23.120;2022-07-01T10:17:44;8.82;;;6.22;;
39680;SDS011;26327;42.550;23.120;2022-07-01T10:20:32;14.90;;;6.75;;
39680;SDS011;26327;42.550;23.120;2022-07-01T10:23:00;9.80;;;6.07;;
39680;SDS011;26327;42.550;23.120;2022-07-01T10:25:29;10.48;;;7.20;;
39680;SDS011;26327;42.550;23.120;2022-07-01T10:33:33;10.30;;;5.88;;
39680;SDS011;26327;42.550;23.120;2022-07-01T10:41:34;9.63;;;5.95;;
39680;SDS011;26327;42.550;23.120;2022-07-01T10:44:18;11.85;;;6.30;;
39680;SDS011;26327;42.550;23.120;2022-07-01T10:46:48;6.95;;;6.15;;
39680;SDS011;26327;42.550;23.120;2022-07-01T10:52:01;6.55;;;5.53;;
39680;SDS011;26327;42.550;23.120;2022-07-01T10:59:45;8.70;;;5.95;;
39680;SDS011;26327;42.550;23.120;2022-07-01T11:05:04;10.30;;;6.22;;
39680;SDS011;26327;42.550;23.120;2022-07-01T11:07:33;9.73;;;5.38;;
39680;SDS011;26327;42.550;23.120;2022-07-01T11:10:00;9.40;;;5.43;;
39680;SDS011;26327;42.550;23.120;2022-07-01T11:12:28;9.20;;;5.80;;
39680;SDS011;26327;42.550;23.120;2022-07-01T11:14:55;7.93;;;5.72;;
39680;SDS011;26327;42.550;23.120;2022-07-01T11:19:53;9.57;;;5.70;;
39680;SDS011;26327;42.550;23.120;2022-07-01T11:22:23;10.63;;;5.97;;
39680;SDS011;26327;42.550;23.120;2022-07-01T11:24:52;11.52;;;5.80;;
39680;SDS011;26327;42.550;23.120;2022-07-01T11:27:21;11.70;;;5.68;;
39680;SDS011;26327;42.550;23.120;2022-07-01T11:29:55;10.00;;;5.82;;
39680;SDS011;26327;42.550;23.120;2022-07-01T11:32:30;9.90;;;5.55;;
39680;SDS011;26327;42.550;23.120;2022-07-01T11:34:58;8.80;;;5.63;;
39680;SDS011;26327;42.550;23.120;2022-07-01T11:37:29;10.27;;;5.60;;
39680;SDS011;26327;42.550;23.120;2022-07-01T11:40:14;8.07;;;5.40;;
39680;SDS011;26327;42.550;23.120;2022-07-01T11:42:42;8.60;;;5.47;;
39680;SDS011;26327;42.550;23.120;2022-07-01T11:45:08;9.88;;;5.55;;
39680;SDS011;26327;42.550;23.120;2022-07-01T11:47:34;9.52;;;5.80;;
39680;SDS011;26327;42.550;23.120;2022-07-01T11:50:00;9.25;;;6.20;;
39680;SDS011;26327;42.550;23.120;2022-07-01T11:52:26;6.53;;;5.35;;
39680;SDS011;26327;42.550;23.120;2022-07-01T11:54:53;11.43;;;6.43;;
39680;SDS011;26327;42.550;23.120;2022-07-01T11:57:23;5.60;;;5.10;;
39680;SDS011;26327;42.550;23.120;2022-07-01T11:59:53;8.93;;;5.10;;
39680;SDS011;26327;42.550;23.120;2022-07-01T12:02:20;7.03;;;4.60;;
39680;SDS011;26327;42.550;23.120;2022-07-01T12:04:47;7.95;;;4.15;;
39680;SDS011;26327;42.550;23.120;2022-07-01T12:07:14;5.45;;;4.88;;
39680;SDS011;26327;42.550;23.120;2022-07-01T12:09:40;8.15;;;4.95;;
39680;SDS011;26327;42.550;23.120;2022-07-01T12:12:07;7.57;;;5.93;;
39680;SDS011;26327;42.550;23.120;2022-07-01T12:14:39;7.45;;;4.70;;
39680;SDS011;26327;42.550;23.120;2022-07-01T12:17:06;6.28;;;4.68;;
39680;SDS011;26327;42.550;23.120;2022-07-01T12:22:08;5.25;;;4.38;;
39680;SDS011;26327;42.550;23.120;2022-07-01T12:24:35;6.03;;;4.30;;
39680;SDS011;26327;42.550;23.120;2022-07-01T12:27:02;5.53;;;4.85;;
39680;SDS011;26327;42.550;23.120;2022-07-01T12:32:07;6.35;;;4.40;;
39680;SDS011;26327;42.550;23.120;2022-07-01T12:34:36;5.80;;;4.65;;
39680;SDS011;26327;42.550;23.120;2022-07-01T12:37:41;5.47;;;4.28;;
39680;SDS011;26327;42.550;23.120;2022-07-01T12:40:25;6.25;;;3.83;;
39680;SDS011;26327;42.550;23.120;2022-07-01T12:42:54;7.00;;;4.10;;
39680;SDS011;26327;42.550;23.120;2022-07-01T12:45:22;4.80;;;3.70;;
39680;SDS011;26327;42.550;23.120;2022-07-01T12:47:50;5.55;;;3.60;;
39680;SDS011;26327;42.550;23.120;2022-07-01T12:50:27;6.07;;;3.38;;
39680;SDS011;26327;42.550;23.120;2022-07-01T12:53:02;3.90;;;3.50;;
39680;SDS011;26327;42.550;23.120;2022-07-01T12:55:40;4.70;;;3.22;;
39680;SDS011;26327;42.550;23.120;2022-07-01T12:58:08;4.72;;;3.50;;
39680;SDS011;26327;42.550;23.120;2022-07-01T13:00:35;7.05;;;3.38;;
39680;SDS011;26327;42.550;23.120;2022-07-01T13:03:03;5.95;;;3.28;;
39680;SDS011;26327;42.550;23.120;2022-07-01T13:05:30;5.70;;;3.92;;
39680;SDS011;26327;42.550;23.120;2022-07-01T13:07:57;7.20;;;3.58;;
39680;SDS011;26327;42.550;23.120;2022-07-01T13:10:23;4.78;;;3.80;;
39680;SDS011;26327;42.550;23.120;2022-07-01T13:12:49;4.90;;;3.60;;
39680;SDS011;26327;42.550;23.120;2022-07-01T13:15:16;6.90;;;3.63;;
39680;SDS011;26327;42.550;23.120;2022-07-01T13:17:43;5.53;;;3.72;;
39680;SDS011;26327;42.550;23.120;2022-07-01T13:20:12;4.72;;;3.50;;
39680;SDS011;26327;42.550;23.120;2022-07-01T13:22:38;5.38;;;3.25;;
39680;SDS011;26327;42.550;23.120;2022-07-01T13:25:04;6.00;;;3.22;;
39680;SDS011;26327;42.550;23.120;2022-07-01T13:27:30;5.80;;;3.35;;
39680;SDS011;26327;42.550;23.120;2022-07-01T13:29:56;4.65;;;3.42;;
39680;SDS011;26327;42.550;23.120;2022-07-01T13:32:22;5.13;;;3.42;;
39680;SDS011;26327;42.550;23.120;2022-07-01T13:34:48;5.50;;;2.97;;
39680;SDS011;26327;42.550;23.120;2022-07-01T13:37:13;4.15;;;3.35;;
39680;SDS011;26327;42.550;23.120;2022-07-01T13:39:39;5.15;;;3.13;;
39680;SDS011;26327;42.550;23.120;2022-07-01T13:42:05;3.97;;;2.97;;
39680;SDS011;26327;42.550;23.120;2022-07-01T13:44:30;4.18;;;3.13;;
39680;SDS011;26327;42.550;23.120;2022-07-01T13:46:56;5.32;;;3.15;;
39680;SDS011;26327;42.550;23.120;2022-07-01T13:49:21;3.78;;;2.40;;
39680;SDS011;26327;42.550;23.120;2022-07-01T13:51:47;4.95;;;2.35;;
39680;SDS011;26327;42.550;23.120;2022-07-01T13:54:12;3.95;;;2.40;;
39680;SDS011;26327;42.550;23.120;2022-07-01T13:56:38;4.40;;;2.85;;
39680;SDS011;26327;42.550;23.120;2022-07-01T13:59:03;5.72;;;2.70;;
39680;SDS011;26327;42.550;23.120;2022-07-01T14:01:30;4.53;;;2.80;;
39680;SDS011;26327;42.550;23.120;2022-07-01T14:03:58;2.95;;;2.65;;
39680;SDS011;26327;42.550;23.120;2022-07-01T14:06:23;5.88;;;2.70;;
39680;SDS011;26327;42.550;23.120;2022-07-01T14:08:48;9.55;;;2.92;;
39680;SDS011;26327;42.550;23.120;2022-07-01T14:11:14;4.45;;;2.88;;
39680;SDS011;26327;42.550;23.120;2022-07-01T14:13:40;6.43;;;3.33;;
39680;SDS011;26327;42.550;23.120;2022-07-01T14:16:06;5.50;;;3.63;;
39680;SDS011;26327;42.550;23.120;2022-07-01T14:18:34;3.20;;;2.90;;
39680;SDS011;26327;42.550;23.120;2022-07-01T14:23:27;3.47;;;3.13;;
39680;SDS011;26327;42.550;23.120;2022-07-01T14:25:52;5.43;;;3.50;;
39680;SDS011;26327;42.550;23.120;2022-07-01T14:28:18;6.60;;;3.30;;
39680;SDS011;26327;42.550;23.120;2022-07-01T14:30:44;5.57;;;3.42;;
39680;SDS011;26327;42.550;23.120;2022-07-01T14:33:10;5.10;;;3.40;;
39680;SDS011;26327;42.550;23.120;2022-07-01T14:35:35;5.07;;;4.00;;
39680;SDS011;26327;42.550;23.120;2022-07-01T14:38:01;5.43;;;3.63;;
39680;SDS011;26327;42.550;23.120;2022-07-01T14:40:27;5.63;;;3.83;;
39680;SDS011;26327;42.550;23.120;2022-07-01T14:42:52;6.65;;;3.83;;
39680;SDS011;26327;42.550;23.120;2022-07-01T14:45:18;5.68;;;4.13;;
39680;SDS011;26327;42.550;23.120;2022-07-01T14:47:44;15.07;;;6.90;;
39680;SDS011;26327;42.550;23.120;2022-07-01T14:50:10;8.35;;;5.47;;
39680;SDS011;26327;42.550;23.120;2022-07-01T14:52:36;4.97;;;4.22;;
39680;SDS011;26327;42.550;23.120;2022-07-01T14:55:03;6.55;;;3.85;;
39680;SDS011;26327;42.550;23.120;2022-07-01T14:57:29;9.35;;;4.88;;
39680;SDS011;26327;42.550;23.120;2022-07-01T14:59:54;7.32;;;4.20;;
39680;SDS011;26327;42.550;23.120;2022-07-01T15:02:20;5.25;;;4.00;;
39680;SDS011;26327;42.550;23.120;2022-07-01T15:04:46;6.75;;;4.07;;
39680;SDS011;26327;42.550;23.120;2022-07-01T15:07:12;7.22;;;4.40;;
39680;SDS011;26327;42.550;23.120;2022-07-01T15:09:38;6.55;;;4.50;;
39680;SDS011;26327;42.550;23.120;2022-07-01T15:12:04;6.43;;;4.25;;
39680;SDS011;26327;42.550;23.120;2022-07-01T15:14:29;5.63;;;4.50;;
39680;SDS011;26327;42.550;23.120;2022-07-01T15:16:55;6.43;;;4.40;;
39680;SDS011;26327;42.550;23.120;2022-07-01T15:19:23;7.57;;;4.10;;
39680;SDS011;26327;42.550;23.120;2022-07-01T15:21:48;6.88;;;4.25;;
39680;SDS011;26327;42.550;23.120;2022-07-01T15:24:14;6.65;;;3.83;;
39680;SDS011;26327;42.550;23.120;2022-07-01T15:26:39;5.57;;;4.60;;
39680;SDS011;26327;42.550;23.120;2022-07-01T15:29:06;7.70;;;4.30;;
39680;SDS011;26327;42.550;23.120;2022-07-01T15:31:31;6.25;;;4.15;;
39680;SDS011;26327;42.550;23.120;2022-07-01T15:33:57;6.80;;;4.57;;
39680;SDS011;26327;42.550;23.120;2022-07-01T15:36:22;7.07;;;4.45;;
39680;SDS011;26327;42.550;23.120;2022-07-01T15:38:48;9.23;;;4.65;;
39680;SDS011;26327;42.550;23.120;2022-07-01T15:41:13;9.45;;;4.75;;
39680;SDS011;26327;42.550;23.120;2022-07-01T15:43:40;14.48;;;5.15;;
39680;SDS011;26327;42.550;23.120;2022-07-01T15:46:06;13.23;;;7.05;;
39680;SDS011;26327;42.550;23.120;2022-07-01T15:48:32;10.10;;;5.75;;
39680;SDS011;26327;42.550;23.120;2022-07-01T15:50:57;5.50;;;4.90;;
39680;SDS011;26327;42.550;23.120;2022-07-01T15:53:23;5.53;;;4.70;;
39680;SDS011;26327;42.550;23.120;2022-07-01T15:55:49;8.23;;;4.68;;
39680;SDS011;26327;42.550;23.120;2022-07-01T15:58:15;8.93;;;4.55;;
39680;SDS011;26327;42.550;23.120;2022-07-01T16:00:44;5.03;;;4.53;;
39680;SDS011;26327;42.550;23.120;2022-07-01T16:03:12;5.90;;;5.07;;
39680;SDS011;26327;42.550;23.120;2022-07-01T16:05:38;4.88;;;4.38;;
39680;SDS011;26327;42.550;23.120;2022-07-01T16:08:08;7.40;;;4.75;;
39680;SDS011;26327;42.550;23.120;2022-07-01T16:10:46;6.43;;;5.10;;
39680;SDS011;26327;42.550;23.120;2022-07-01T16:13:19;6.30;;;5.32;;
39680;SDS011;26327;42.550;23.120;2022-07-01T16:15:49;10.15;;;5.60;;
39680;SDS011;26327;42.550;23.120;2022-07-01T16:18:16;6.95;;;5.32;;
39680;SDS011;26327;42.550;23.120;2022-07-01T16:20:44;8.50;;;5.47;;
39680;SDS011;26327;42.550;23.120;2022-07-01T16:23:11;12.30;;;9.27;;
39680;SDS011;26327;42.550;23.120;2022-07-01T16:25:39;6.80;;;5.28;;
39680;SDS011;26327;42.550;23.120;2022-07-01T16:28:06;7.15;;;4.90;;
39680;SDS011;26327;42.550;23.120;2022-07-01T16:30:34;6.10;;;5.18;;
39680;SDS011;26327;42.550;23.120;2022-07-01T16:33:02;9.57;;;5.20;;
39680;SDS011;26327;42.550;23.120;2022-07-01T16:35:29;10.15;;;5.85;;
39680;SDS011;26327;42.550;23.120;2022-07-01T16:38:03;7.93;;;5.53;;
39680;SDS011;26327;42.550;23.120;2022-07-01T16:40:31;8.32;;;5.18;;
39680;SDS011;26327;42.550;23.120;2022-07-01T16:43:01;7.35;;;5.18;;
39680;SDS011;26327;42.550;23.120;2022-07-01T16:45:34;6.60;;;5.45;;
39680;SDS011;26327;42.550;23.120;2022-07-01T16:48:02;8.07;;;5.60;;
39680;SDS011;26327;42.550;23.120;2022-07-01T16:50:28;6.80;;;5.30;;
39680;SDS011;26327;42.550;23.120;2022-07-01T16:53:00;5.28;;;4.65;;
39680;SDS011;26327;42.550;23.120;2022-07-01T16:55:36;8.43;;;4.65;;
39680;SDS011;26327;42.550;23.120;2022-07-01T16:58:06;7.72;;;5.10;;
39680;SDS011;26327;42.550;23.120;2022-07-01T17:00:32;9.98;;;5.78;;
39680;SDS011;26327;42.550;23.120;2022-07-01T17:02:59;7.60;;;5.43;;
39680;SDS011;26327;42.550;23.120;2022-07-01T17:05:28;8.52;;;5.55;;
39680;SDS011;26327;42.550;23.120;2022-07-01T17:07:55;9.00;;;5.30;;
39680;SDS011;26327;42.550;23.120;2022-07-01T17:10:23;6.07;;;5.05;;
39680;SDS011;26327;42.550;23.120;2022-07-01T17:12:51;8.88;;;5.60;;
39680;SDS011;26327;42.550;23.120;2022-07-01T17:15:17;7.45;;;5.00;;
39680;SDS011;26327;42.550;23.120;2022-07-01T17:17:44;9.35;;;5.50;;
39680;SDS011;26327;42.550;23.120;2022-07-01T17:20:11;8.63;;;6.25;;
39680;SDS011;26327;42.550;23.120;2022-07-01T17:22:52;12.60;;;6.25;;
39680;SDS011;26327;42.550;23.120;2022-07-01T17:28:05;12.15;;;5.72;;
39680;SDS011;26327;42.550;23.120;2022-07-01T17:30:51;10.00;;;5.90;;
39680;SDS011;26327;42.550;23.120;2022-07-01T17:33:21;6.10;;;5.18;;
39680;SDS011;26327;42.550;23.120;2022-07-01T17:35:53;7.22;;;4.85;;
39680;SDS011;26327;42.550;23.120;2022-07-01T17:38:22;9.45;;;5.45;;
39680;SDS011;26327;42.550;23.120;2022-07-01T17:40:49;9.80;;;7.35;;
39680;SDS011;26327;42.550;23.120;2022-07-01T17:43:19;23.45;;;11.52;;
39680;SDS011;26327;42.550;23.120;2022-07-01T17:45:46;13.70;;;9.05;;
39680;SDS011;26327;42.550;23.120;2022-07-01T17:48:14;23.45;;;11.15;;
39680;SDS011;26327;42.550;23.120;2022-07-01T17:50:41;26.83;;;13.85;;
39680;SDS011;26327;42.550;23.120;2022-07-01T17:53:08;29.63;;;13.00;;
39680;SDS011;26327;42.550;23.120;2022-07-01T17:55:35;48.50;;;20.23;;
39680;SDS011;26327;42.550;23.120;2022-07-01T17:58:05;43.95;;;21.23;;
39680;SDS011;26327;42.550;23.120;2022-07-01T18:00:31;19.25;;;10.80;;
39680;SDS011;26327;42.550;23.120;2022-07-01T18:02:59;14.43;;;8.82;;
39680;SDS011;26327;42.550;23.120;2022-07-01T18:05:28;13.85;;;7.00;;
39680;SDS011;26327;42.550;23.120;2022-07-01T18:07:56;9.93;;;5.65;;
39680;SDS011;26327;42.550;23.120;2022-07-01T18:10:22;10.52;;;6.10;;
39680;SDS011;26327;42.550;23.120;2022-07-01T18:12:57;10.45;;;6.03;;
39680;SDS011;26327;42.550;23.120;2022-07-01T18:15:26;7.85;;;6.03;;
39680;SDS011;26327;42.550;23.120;2022-07-01T18:18:00;7.63;;;6.45;;
39680;SDS011;26327;42.550;23.120;2022-07-01T18:20:44;14.45;;;7.30;;
39680;SDS011;26327;42.550;23.120;2022-07-01T18:25:56;8.38;;;7.38;;
39680;SDS011;26327;42.550;23.120;2022-07-01T18:28:28;15.63;;;7.72;;
39680;SDS011;26327;42.550;23.120;2022-07-01T18:30:57;16.48;;;7.82;;
39680;SDS011;26327;42.550;23.120;2022-07-01T18:33:26;13.15;;;7.45;;
39680;SDS011;26327;42.550;23.120;2022-07-01T18:35:55;8.55;;;7.65;;
39680;SDS011;26327;42.550;23.120;2022-07-01T18:38:27;10.68;;;7.50;;
39680;SDS011;26327;42.550;23.120;2022-07-01T18:40:55;13.30;;;7.63;;
39680;SDS011;26327;42.550;23.120;2022-07-01T18:43:20;12.07;;;7.95;;
39680;SDS011;26327;42.550;23.120;2022-07-01T18:45:46;10.48;;;8.18;;
39680;SDS011;26327;42.550;23.120;2022-07-01T18:48:11;13.65;;;7.68;;
39680;SDS011;26327;42.550;23.120;2022-07-01T18:50:37;13.93;;;7.85;;
39680;SDS011;26327;42.550;23.120;2022-07-01T18:53:02;10.50;;;8.13;;
39680;SDS011;26327;42.550;23.120;2022-07-01T18:55:28;12.52;;;8.13;;
39680;SDS011;26327;42.550;23.120;2022-07-01T18:57:55;15.25;;;7.82;;
39680;SDS011;26327;42.550;23.120;2022-07-01T19:00:21;12.43;;;7.78;;
39680;SDS011;26327;42.550;23.120;2022-07-01T19:02:51;13.15;;;7.72;;
39680;SDS011;26327;42.550;23.120;2022-07-01T19:05:17;10.15;;;7.88;;
39680;SDS011;26327;42.550;23.120;2022-07-01T19:07:43;14.27;;;8.10;;
39680;SDS011;26327;42.550;23.120;2022-07-01T19:10:08;12.32;;;8.32;;
39680;SDS011;26327;42.550;23.120;2022-07-01T19:12:37;13.23;;;8.52;;
39680;SDS011;26327;42.550;23.120;2022-07-01T19:15:06;14.57;;;8.52;;
39680;SDS011;26327;42.550;23.120;2022-07-01T19:17:32;12.35;;;8.25;;
39680;SDS011;26327;42.550;23.120;2022-07-01T19:19:58;11.98;;;8.95;;
39680;SDS011;26327;42.550;23.120;2022-07-01T19:22:24;11.05;;;8.75;;
39680;SDS011;26327;42.550;23.120;2022-07-01T19:24:50;10.82;;;8.27;;
39680;SDS011;26327;42.550;23.120;2022-07-01T19:27:15;15.65;;;9.05;;
39680;SDS011;26327;42.550;23.120;2022-07-01T19:29:41;12.85;;;8.95;;
39680;SDS011;26327;42.550;23.120;2022-07-01T19:32:07;12.43;;;8.60;;
39680;SDS011;26327;42.550;23.120;2022-07-01T19:34:33;16.00;;;9.60;;
39680;SDS011;26327;42.550;23.120;2022-07-01T19:36:58;21.67;;;9.00;;
39680;SDS011;26327;42.550;23.120;2022-07-01T19:39:23;12.25;;;8.40;;
39680;SDS011;26327;42.550;23.120;2022-07-01T19:41:49;12.85;;;7.88;;
39680;SDS011;26327;42.550;23.120;2022-07-01T19:44:14;13.68;;;8.18;;
39680;SDS011;26327;42.550;23.120;2022-07-01T19:46:40;10.60;;;7.93;;
39680;SDS011;26327;42.550;23.120;2022-07-01T19:49:05;9.95;;;8.13;;
39680;SDS011;26327;42.550;23.120;2022-07-01T19:51:32;13.07;;;8.43;;
39680;SDS011;26327;42.550;23.120;2022-07-01T19:53:58;14.02;;;8.35;;
39680;SDS011;26327;42.550;23.120;2022-07-01T19:56:23;14.93;;;7.93;;
39680;SDS011;26327;42.550;23.120;2022-07-01T19:58:49;13.57;;;8.80;;
39680;SDS011;26327;42.550;23.120;2022-07-01T20:01:15;11.35;;;8.02;;
39680;SDS011;26327;42.550;23.120;2022-07-01T20:03:40;10.38;;;8.05;;
39680;SDS011;26327;42.550;23.120;2022-07-01T20:06:06;12.25;;;8.55;;
39680;SDS011;26327;42.550;23.120;2022-07-01T20:08:32;9.40;;;7.78;;
39680;SDS011;26327;42.550;23.120;2022-07-01T20:10:58;9.30;;;7.63;;
39680;SDS011;26327;42.550;23.120;2022-07-01T20:13:24;12.80;;;7.70;;
39680;SDS011;26327;42.550;23.120;2022-07-01T20:15:50;10.48;;;7.80;;
39680;SDS011;26327;42.550;23.120;2022-07-01T20:18:15;64.88;;;53.13;;
39680;SDS011;26327;42.550;23.120;2022-07-01T20:20:41;11.15;;;7.90;;
39680;SDS011;26327;42.550;23.120;2022-07-01T20:23:06;9.07;;;7.07;;
39680;SDS011;26327;42.550;23.120;2022-07-01T20:25:32;10.85;;;7.55;;
39680;SDS011;26327;42.550;23.120;2022-07-01T20:27:57;11.45;;;7.47;;
39680;SDS011;26327;42.550;23.120;2022-07-01T20:30:25;10.80;;;7.30;;
39680;SDS011;26327;42.550;23.120;2022-07-01T20:32:53;11.68;;;7.80;;
39680;SDS011;26327;42.550;23.120;2022-07-01T20:35:18;13.15;;;8.30;;
39680;SDS011;26327;42.550;23.120;2022-07-01T20:37:45;11.95;;;7.97;;
39680;SDS011;26327;42.550;23.120;2022-07-01T20:40:11;10.63;;;8.38;;
39680;SDS011;26327;42.550;23.120;2022-07-01T20:42:40;11.20;;;7.80;;
39680;SDS011;26327;42.550;23.120;2022-07-01T20:45:06;10.55;;;7.85;;
39680;SDS011;26327;42.550;23.120;2022-07-01T20:47:32;9.60;;;7.22;;
39680;SDS011;26327;42.550;23.120;2022-07-01T20:49:57;8.98;;;7.32;;
39680;SDS011;26327;42.550;23.120;2022-07-01T20:52:23;11.25;;;7.47;;
39680;SDS011;26327;42.550;23.120;2022-07-01T20:54:48;8.63;;;7.15;;
39680;SDS011;26327;42.550;23.120;2022-07-01T20:57:14;9.88;;;7.88;;
39680;SDS011;26327;42.550;23.120;2022-07-01T20:59:40;10.10;;;7.97;;